Weather at Bintulu Airport

Public forecast

Using degrees Celsius for public forecast. Weather courtesy of forecast.io.

Current aviation weather report (METAR) for Bintulu Airport

2024/04/12 23:00 (retrieved 37 minutes ago)

WBGB 122300Z 19003KT 130V250 9999 -RA SCT014 FEW015CB 25/24 Q1010

Aviation forecast (TAF) for Bintulu Airport

2024/04/12 18:00 (retrieved 6 hours ago)

TAF WBGB 121700Z 1218/1318 VRB03KT 9999 SCT016 TEMPO 1219/1223 35005KT 5000 RA FEW005 SCT016